createdAt,value
2023-01-11T00:03:33.402Z,99718.81
2023-01-11T00:06:20.520Z,99728.09
2023-01-11T00:09:07.720Z,99722.78
2023-01-11T00:11:55.281Z,99729.59
2023-01-11T00:14:42.455Z,99727.78
2023-01-11T00:17:29.847Z,99727.66
2023-01-11T00:20:17.792Z,99707.81
2023-01-11T00:23:05.023Z,99714.78
2023-01-11T00:25:52.101Z,99714.63
2023-01-11T00:28:39.355Z,99708.88
2023-01-11T00:31:26.480Z,99720.28
2023-01-11T00:34:15.127Z,99713.28
2023-01-11T00:37:04.220Z,99705.75
2023-01-11T00:39:52.510Z,99704.31
2023-01-11T00:42:58.413Z,99715.78
2023-01-11T00:46:04.059Z,99716.44
2023-01-11T00:48:51.081Z,99712.72
2023-01-11T00:51:38.052Z,99703.53
2023-01-11T00:54:25.201Z,99707.66
2023-01-11T00:57:12.214Z,99711.09
2023-01-11T00:59:59.272Z,99703.25
2023-01-11T01:02:46.955Z,99697.84
2023-01-11T01:05:34.054Z,99702.00
2023-01-11T01:08:21.059Z,99717.47
2023-01-11T01:11:08.271Z,99699.66
2023-01-11T01:14:13.885Z,99703.38
2023-01-11T01:17:04.329Z,99703.63
2023-01-11T01:19:51.374Z,99694.81
2023-01-11T01:22:38.534Z,99701.19
2023-01-11T01:25:25.670Z,99698.66
2023-01-11T01:28:12.735Z,99697.88
2023-01-11T01:30:59.984Z,99693.63
2023-01-11T01:33:47.068Z,99689.50
2023-01-11T01:36:34.046Z,99672.34
2023-01-11T01:39:21.964Z,99663.63
2023-01-11T01:42:15.138Z,99672.00
2023-01-11T01:45:24.026Z,99679.72
2023-01-11T01:48:17.624Z,99675.50
2023-01-11T01:51:07.384Z,99674.47
2023-01-11T01:53:58.556Z,99666.63
2023-01-11T01:56:51.701Z,99668.09
2023-01-11T01:59:38.928Z,99665.88
2023-01-11T02:02:26.660Z,99678.13
2023-01-11T02:05:15.937Z,99670.72
2023-01-11T02:08:08.033Z,99666.66
2023-01-11T02:10:56.014Z,99668.50
2023-01-11T02:13:46.295Z,99662.66
2023-01-11T02:16:33.884Z,99669.53
2023-01-11T02:19:49.821Z,99669.31
2023-01-11T02:23:01.201Z,99663.47
2023-01-11T02:26:19.065Z,99668.16
2023-01-11T02:29:40.395Z,99668.34
2023-01-11T02:32:45.312Z,99669.81
2023-01-11T02:35:56.350Z,99666.38
2023-01-11T02:38:53.311Z,99669.00
2023-01-11T02:42:17.378Z,99663.81
2023-01-11T02:45:26.372Z,99658.75
2023-01-11T02:48:43.178Z,99666.63
2023-01-11T02:51:43.917Z,99649.41
2023-01-11T02:54:38.140Z,99662.28
2023-01-11T02:57:29.659Z,99656.56
2023-01-11T03:00:19.311Z,99658.28
2023-01-11T03:03:14.766Z,99656.13
2023-01-11T03:06:08.796Z,99653.50
2023-01-11T03:08:58.774Z,99658.72
2023-01-11T03:12:49.303Z,99651.78
2023-01-11T03:15:42.317Z,99661.69
2023-01-11T03:18:47.337Z,99652.91
2023-01-11T03:21:51.474Z,99652.09
2023-01-11T03:24:50.275Z,99641.63
2023-01-11T03:27:53.630Z,99646.03
2023-01-11T03:30:47.048Z,99627.31
2023-01-11T03:33:39.835Z,99635.75
2023-01-11T03:36:55.184Z,99628.66
2023-01-11T03:39:50.516Z,99620.41
2023-01-11T03:43:02.313Z,99635.94
2023-01-11T03:46:04.019Z,99618.78
2023-01-11T03:48:55.810Z,99619.69
2023-01-11T03:51:44.801Z,99629.66
2023-01-11T03:54:33.836Z,99613.34
2023-01-11T03:57:29.454Z,99615.88
2023-01-11T04:00:18.905Z,99632.19
2023-01-11T04:03:06.253Z,99627.09
2023-01-11T04:05:55.198Z,99628.38
2023-01-11T04:08:42.269Z,99614.34
2023-01-11T04:11:29.263Z,99606.34
2023-01-11T04:14:16.324Z,99609.47
2023-01-11T04:17:04.059Z,99602.25
2023-01-11T04:19:51.108Z,99607.03
2023-01-11T04:22:38.194Z,99617.06
2023-01-11T04:25:25.412Z,99606.44
2023-01-11T04:28:12.505Z,99607.16
2023-01-11T04:30:59.472Z,99578.06
2023-01-11T04:33:46.517Z,99615.53
2023-01-11T04:36:33.776Z,99615.47
2023-01-11T04:39:20.934Z,99617.25
2023-01-11T04:42:20.204Z,99606.09
2023-01-11T04:45:07.669Z,99618.13
2023-01-11T04:47:56.760Z,99619.66
2023-01-11T04:50:43.792Z,99604.97
2023-01-11T04:53:30.872Z,99604.66
2023-01-11T04:56:18.528Z,99607.13
2023-01-11T04:59:05.602Z,99586.50
2023-01-11T05:01:52.755Z,99598.56
2023-01-11T05:04:39.991Z,99599.41
2023-01-11T05:07:27.034Z,99595.13
2023-01-11T05:10:14.185Z,99608.00
2023-01-11T05:13:01.228Z,99601.94
2023-01-11T05:15:48.344Z,99598.50
2023-01-11T05:18:36.144Z,99599.47
2023-01-11T05:21:25.674Z,99586.44
2023-01-11T05:24:14.891Z,99603.63
2023-01-11T05:27:02.302Z,99567.44
2023-01-11T05:29:49.401Z,99584.72
2023-01-11T05:32:36.415Z,99579.16
2023-01-11T05:35:23.816Z,99574.69
2023-01-11T05:38:10.899Z,99577.91
2023-01-11T05:41:05.197Z,99560.88
2023-01-11T05:44:12.304Z,99574.56
2023-01-11T05:46:59.854Z,99569.25
2023-01-11T05:49:46.895Z,99558.13
2023-01-11T05:52:33.997Z,99563.19
2023-01-11T05:55:21.083Z,99558.91
2023-01-11T05:58:08.121Z,99560.00
2023-01-11T06:00:56.586Z,99569.38
2023-01-11T06:03:44.334Z,99565.09
2023-01-11T06:06:32.815Z,99573.91
2023-01-11T06:09:19.919Z,99583.44
2023-01-11T06:12:07.245Z,99571.94
2023-01-11T06:14:54.287Z,99580.75
2023-01-11T06:17:41.396Z,99582.09
2023-01-11T06:20:28.467Z,99579.66
2023-01-11T06:23:15.534Z,99571.88
2023-01-11T06:26:10.098Z,99580.47
2023-01-11T06:28:57.183Z,99576.13
2023-01-11T06:31:44.401Z,99591.00
2023-01-11T06:34:31.483Z,99582.94
2023-01-11T06:37:18.538Z,99569.78
2023-01-11T06:40:06.338Z,99573.56
2023-01-11T06:42:53.442Z,99571.53
2023-01-11T06:45:41.290Z,99565.34
2023-01-11T06:48:28.688Z,99582.88
2023-01-11T06:51:16.530Z,99587.53
2023-01-11T06:54:03.836Z,99574.19
2023-01-11T06:56:51.174Z,99578.94
2023-01-11T06:59:39.676Z,99591.41
2023-01-11T07:02:26.939Z,99577.97
2023-01-11T07:05:14.873Z,99586.47
2023-01-11T07:08:02.732Z,99580.34
2023-01-11T07:10:49.899Z,99579.28
2023-01-11T07:13:36.942Z,99583.41
2023-01-11T07:16:24.049Z,99589.13
2023-01-11T07:19:11.128Z,99592.31
2023-01-11T07:21:58.214Z,99569.06
2023-01-11T07:24:47.040Z,99569.44
2023-01-11T07:27:35.341Z,99565.97
2023-01-11T07:30:22.434Z,99563.19
2023-01-11T07:33:10.794Z,99559.47
2023-01-11T07:36:00.738Z,99547.69
2023-01-11T07:38:47.859Z,99545.13
2023-01-11T07:41:53.895Z,99537.53
2023-01-11T07:44:40.940Z,99535.34
2023-01-11T07:47:28.145Z,99519.47
2023-01-11T07:50:17.102Z,99501.41
2023-01-11T07:53:04.296Z,99513.19
2023-01-11T07:55:51.530Z,99513.03
2023-01-11T07:58:38.676Z,99516.94
2023-01-11T08:01:25.794Z,99516.63
2023-01-11T08:04:14.296Z,99509.47
2023-01-11T08:07:03.243Z,99493.28
2023-01-11T08:09:50.317Z,99483.31
2023-01-11T08:13:06.362Z,99482.31
2023-01-11T08:15:53.376Z,99454.34
2023-01-11T08:18:40.456Z,99474.59
2023-01-11T08:21:28.442Z,99472.19
2023-01-11T08:24:15.646Z,99468.31
2023-01-11T08:27:04.460Z,99474.22
2023-01-11T08:29:51.672Z,99469.53
2023-01-11T08:32:38.752Z,99460.09
2023-01-11T08:35:26.076Z,99458.53
2023-01-11T08:38:13.183Z,99461.63
2023-01-11T08:41:03.269Z,99462.28
2023-01-11T08:43:50.471Z,99463.22
2023-01-11T08:46:38.192Z,99457.25
2023-01-11T08:49:25.349Z,99468.84
2023-01-11T08:52:16.798Z,99457.78
2023-01-11T08:55:07.711Z,99463.91
2023-01-11T08:57:57.089Z,99458.84
2023-01-11T09:00:45.123Z,99456.50
2023-01-11T09:03:32.302Z,99450.06
2023-01-11T09:06:19.391Z,99466.09
2023-01-11T09:09:06.511Z,99466.22
2023-01-11T09:12:04.766Z,99462.91
2023-01-11T09:14:52.612Z,99459.28
2023-01-11T09:17:39.706Z,99452.53
2023-01-11T09:20:26.922Z,99449.25
2023-01-11T09:23:14.001Z,99452.13
2023-01-11T09:26:01.076Z,99446.28
2023-01-11T09:28:48.178Z,99449.38
2023-01-11T09:31:35.411Z,99453.69
2023-01-11T09:34:22.571Z,99457.06
2023-01-11T09:37:09.640Z,99455.47
2023-01-11T09:39:59.616Z,99443.78
2023-01-11T09:42:51.591Z,99440.28
2023-01-11T09:45:46.781Z,99430.78
2023-01-11T09:48:44.755Z,99433.44
2023-01-11T09:51:39.654Z,99410.69
2023-01-11T09:54:27.636Z,99422.59
2023-01-11T10:00:28.895Z,99410.88
2023-01-11T10:03:49.962Z,99401.28
2023-01-11T10:06:51.847Z,99414.50
2023-01-11T10:18:33.344Z,99403.13
2023-01-11T10:20:35.613Z,99396.84
2023-01-11T10:23:32.267Z,99393.53
2023-01-11T10:26:32.562Z,99398.56
2023-01-11T10:29:53.532Z,99397.91
2023-01-11T10:33:14.619Z,99397.88
2023-01-11T10:36:18.590Z,99384.06
2023-01-11T10:39:33.869Z,99381.56
2023-01-11T10:42:28.847Z,99381.22
2023-01-11T10:45:21.109Z,99371.00
2023-01-11T10:48:19.088Z,99360.69
2023-01-11T10:51:32.287Z,99378.25
2023-01-11T10:54:30.123Z,99379.00
2023-01-11T10:58:01.818Z,99370.31
2023-01-11T11:01:08.771Z,99350.13
2023-01-11T11:04:26.913Z,99356.44
2023-01-11T11:07:25.983Z,99351.47
2023-01-11T11:10:36.906Z,99352.34
2023-01-11T11:13:29.225Z,99337.31
2023-01-11T11:16:22.601Z,99337.34
2023-01-11T11:19:17.196Z,99328.50
2023-01-11T11:22:04.379Z,99313.44
2023-01-11T11:25:05.116Z,99316.63
2023-01-11T11:27:58.551Z,99297.50
2023-01-11T11:30:47.242Z,99285.00
2023-01-11T11:33:41.434Z,99281.25
2023-01-11T11:36:43.699Z,99266.00
2023-01-11T11:39:31.716Z,99255.78
2023-01-11T11:42:21.577Z,99245.16
2023-01-11T11:45:11.624Z,99254.59
2023-01-11T11:48:05.275Z,99250.00
2023-01-11T11:50:55.770Z,99244.09
2023-01-11T11:54:03.282Z,99246.09
2023-01-11T11:56:50.989Z,99237.47
2023-01-11T11:59:38.162Z,99239.44
2023-01-11T12:02:31.956Z,99230.06
2023-01-11T12:05:19.791Z,99219.84
2023-01-11T12:08:06.952Z,99218.59
2023-01-11T12:11:05.808Z,99212.31
2023-01-11T12:14:04.167Z,99210.47
2023-01-11T12:16:51.386Z,99207.56
2023-01-11T12:19:45.937Z,99204.28
2023-01-11T12:22:32.994Z,99205.50
2023-01-11T12:25:26.775Z,99196.66
2023-01-11T12:28:31.234Z,99205.88
2023-01-11T12:31:43.713Z,99197.78
2023-01-11T12:35:14.021Z,99188.19
2023-01-11T12:38:24.544Z,99195.81
2023-01-11T12:41:45.390Z,99193.19
2023-01-11T12:45:20.390Z,99180.84
2023-01-11T12:48:27.596Z,99180.75
2023-01-11T12:51:30.136Z,99175.88
2023-01-11T12:54:39.502Z,99162.38
2023-01-11T12:57:37.584Z,99155.13
2023-01-11T13:00:49.093Z,99153.78
2023-01-11T13:03:41.826Z,99149.25
2023-01-11T13:06:41.123Z,99145.34
2023-01-11T13:10:05.701Z,99141.09
2023-01-11T13:13:06.019Z,99135.94
2023-01-11T13:16:21.686Z,99128.03
2023-01-11T13:19:21.456Z,99121.97
2023-01-11T13:22:16.258Z,99121.84
2023-01-11T13:25:12.724Z,99119.19
2023-01-11T13:28:05.057Z,99108.34
2023-01-11T13:30:54.099Z,99110.16
2023-01-11T13:33:47.900Z,99112.00
2023-01-11T13:36:45.841Z,99113.94
2023-01-11T13:39:43.514Z,99107.91
2023-01-11T13:42:56.724Z,99109.66
2023-01-11T13:45:59.255Z,99097.41
2023-01-11T13:49:12.299Z,99105.50
2023-01-11T13:52:04.296Z,99095.44
2023-01-11T13:55:14.423Z,99111.94
2023-01-11T13:58:15.517Z,99112.94
2023-01-11T14:01:14.478Z,99115.06
2023-01-11T14:04:11.582Z,99110.16
2023-01-11T14:06:58.612Z,99106.72
2023-01-11T14:09:54.096Z,99103.44
2023-01-11T14:12:59.221Z,99095.44
2023-01-11T14:16:00.271Z,99090.69
2023-01-11T14:19:08.979Z,99093.13
2023-01-11T14:22:26.748Z,99095.34
2023-01-11T14:25:30.900Z,99080.59
2023-01-11T14:28:17.982Z,99087.03
2023-01-11T14:31:15.565Z,99085.00
2023-01-11T14:34:35.893Z,99079.78
2023-01-11T14:37:58.335Z,99064.75
2023-01-11T14:41:03.970Z,99082.38
2023-01-11T14:43:59.927Z,99080.88
2023-01-11T14:46:51.909Z,99081.66
2023-01-11T14:50:25.186Z,99082.88
2023-01-11T14:53:19.481Z,99082.91
2023-01-11T14:56:37.024Z,99083.25
2023-01-11T14:59:38.823Z,99083.88
2023-01-11T15:02:27.846Z,99093.13
2023-01-11T15:05:31.222Z,99089.28
2023-01-11T15:08:27.424Z,99089.63
2023-01-11T15:11:22.631Z,99080.81
2023-01-11T15:14:24.898Z,99080.13
2023-01-11T15:17:37.247Z,99078.47
2023-01-11T15:20:25.208Z,99084.44
2023-01-11T15:23:18.269Z,99076.09
2023-01-11T15:26:11.160Z,99065.94
2023-01-11T15:29:00.634Z,99077.28
2023-01-11T15:31:53.640Z,99065.34
2023-01-11T15:34:46.862Z,99077.06
2023-01-11T15:38:00.797Z,99087.88
2023-01-11T15:40:50.281Z,99087.97
2023-01-11T15:44:04.283Z,99096.84
2023-01-11T15:47:15.414Z,99092.97
2023-01-11T15:50:51.905Z,99105.44
2023-01-11T15:53:50.817Z,99090.19
2023-01-11T15:56:56.872Z,99103.91
2023-01-11T16:00:16.165Z,99114.78
2023-01-11T16:03:32.453Z,99097.94
2023-01-11T16:06:37.336Z,99091.41
2023-01-11T16:09:27.477Z,99100.00
2023-01-11T16:12:30.519Z,99106.91
2023-01-11T16:15:23.603Z,99125.19
2023-01-11T16:18:27.759Z,99116.81
2023-01-11T16:21:27.034Z,99118.91
2023-01-11T16:24:20.528Z,99105.47
2023-01-11T16:27:09.381Z,99114.53
2023-01-11T16:29:57.041Z,99119.97
2023-01-11T16:32:44.123Z,99121.91
2023-01-11T16:35:31.255Z,99111.50
2023-01-11T16:38:21.778Z,99120.94
2023-01-11T16:41:13.490Z,99120.56
2023-01-11T16:44:04.897Z,99116.94
2023-01-11T16:47:06.987Z,99119.00
2023-01-11T16:50:20.698Z,99121.91
2023-01-11T16:53:14.939Z,99121.44
2023-01-11T16:56:23.812Z,99135.72
2023-01-11T16:59:13.931Z,99141.66
2023-01-11T17:02:05.327Z,99139.09
2023-01-11T17:04:54.330Z,99130.25
2023-01-11T17:07:41.476Z,99136.22
2023-01-11T17:10:30.087Z,99123.63
2023-01-11T17:13:51.000Z,99129.69
2023-01-11T17:16:50.443Z,99137.19
2023-01-11T17:19:51.182Z,99146.28
2023-01-11T17:22:38.517Z,99158.25
2023-01-11T17:25:43.805Z,99169.53
2023-01-11T17:28:31.809Z,99162.53
2023-01-11T17:31:26.584Z,99156.56
2023-01-11T17:34:26.022Z,99152.34
2023-01-11T17:37:15.269Z,99186.75
2023-01-11T17:40:03.327Z,99158.50
2023-01-11T17:43:09.547Z,99179.59
2023-01-11T17:45:58.827Z,99178.25
2023-01-11T17:48:57.256Z,99179.97
2023-01-11T17:51:44.361Z,99181.91
2023-01-11T17:54:31.491Z,99184.81
2023-01-11T17:57:22.166Z,99193.91
2023-01-11T18:00:26.244Z,99202.50
2023-01-11T18:03:15.927Z,99204.69
2023-01-11T18:06:42.601Z,99197.78
2023-01-11T18:09:32.720Z,99206.88
2023-01-11T18:12:39.405Z,99193.53
2023-01-11T18:15:32.598Z,99208.09
2023-01-11T18:18:42.301Z,99197.53
2023-01-11T18:21:41.104Z,99204.56
2023-01-11T18:24:35.149Z,99213.03
2023-01-11T18:27:28.383Z,99209.88
2023-01-11T18:30:31.046Z,99216.59
2023-01-11T18:33:20.610Z,99210.88
2023-01-11T18:36:20.285Z,99222.38
2023-01-11T18:39:12.455Z,99212.56
2023-01-11T18:42:09.799Z,99212.31
2023-01-11T18:44:57.051Z,99218.38
2023-01-11T18:47:44.594Z,99209.50
2023-01-11T18:50:32.166Z,99217.16
2023-01-11T18:53:19.536Z,99218.47
2023-01-11T18:56:06.990Z,99222.84
2023-01-11T18:58:54.385Z,99221.50
2023-01-11T19:01:54.529Z,99225.72
2023-01-11T19:04:46.939Z,99228.16
2023-01-11T19:07:34.909Z,99226.59
2023-01-11T19:10:23.449Z,99230.47
2023-01-11T19:13:11.030Z,99232.91
2023-01-11T19:16:02.108Z,99244.66
2023-01-11T19:18:49.521Z,99251.44
2023-01-11T19:21:36.768Z,99252.88
2023-01-11T19:24:24.372Z,99250.84
2023-01-11T19:27:13.744Z,99259.94
2023-01-11T19:30:03.245Z,99242.63
2023-01-11T19:32:53.380Z,99270.72
2023-01-11T19:35:42.057Z,99263.00
2023-01-11T19:38:29.264Z,99268.06
2023-01-11T19:41:18.196Z,99269.41
2023-01-11T19:44:05.728Z,99264.56
2023-01-11T19:47:09.794Z,99277.16
2023-01-11T19:50:00.102Z,99288.03
2023-01-11T19:52:49.810Z,99281.75
2023-01-11T19:55:38.546Z,99285.41
2023-01-11T19:58:29.071Z,99293.91
2023-01-11T20:01:19.911Z,99297.50
2023-01-11T20:04:07.227Z,99300.91
2023-01-11T20:06:55.605Z,99318.38
2023-01-11T20:09:42.988Z,99314.47
2023-01-11T20:12:30.412Z,99328.69
2023-01-11T20:15:17.779Z,99321.38
2023-01-11T20:18:05.350Z,99325.84
2023-01-11T20:20:57.310Z,99327.28
2023-01-11T20:23:45.114Z,99328.13
2023-01-11T20:26:34.230Z,99339.28
2023-01-11T20:29:22.233Z,99328.88
2023-01-11T20:32:35.002Z,99344.28
2023-01-11T20:35:18.397Z,99355.34
2023-01-11T20:38:05.811Z,99338.09
2023-01-11T20:40:53.549Z,99341.28
2023-01-11T20:43:40.825Z,99357.81
2023-01-11T20:46:30.086Z,99354.38
2023-01-11T20:49:19.058Z,99368.94
2023-01-11T20:52:06.195Z,99377.34
2023-01-11T20:54:53.279Z,99361.28
2023-01-11T20:57:40.863Z,99382.91
2023-01-11T21:00:29.733Z,99378.88
2023-01-11T21:03:20.104Z,99389.81
2023-01-11T21:06:10.136Z,99375.34
2023-01-11T21:08:59.216Z,99387.88
2023-01-11T21:11:53.226Z,99376.44
2023-01-11T21:14:40.304Z,99396.13
2023-01-11T21:17:27.363Z,99393.56
2023-01-11T21:20:14.601Z,99398.78
2023-01-11T21:23:03.120Z,99401.91
2023-01-11T21:25:50.212Z,99400.13
2023-01-11T21:28:37.551Z,99406.94
2023-01-11T21:31:25.546Z,99403.44
2023-01-11T21:34:13.351Z,99413.09
2023-01-11T21:37:00.475Z,99410.41
2023-01-11T21:39:47.590Z,99408.25
2023-01-11T21:42:34.625Z,99413.09
2023-01-11T21:45:21.725Z,99412.97
2023-01-11T21:48:09.130Z,99417.97
2023-01-11T21:50:56.377Z,99427.66
2023-01-11T21:53:43.556Z,99419.78
2023-01-11T21:56:30.706Z,99418.56
2023-01-11T21:59:20.536Z,99427.66
2023-01-11T22:02:09.183Z,99421.47
2023-01-11T22:04:57.852Z,99414.94
2023-01-11T22:07:44.924Z,99414.84
2023-01-11T22:10:33.428Z,99412.91
2023-01-11T22:13:20.475Z,99404.75
2023-01-11T22:16:11.168Z,99412.41
2023-01-11T22:19:00.128Z,99410.38
2023-01-11T22:21:47.427Z,99419.91
2023-01-11T22:24:34.483Z,99422.47
2023-01-11T22:27:21.615Z,99428.97
2023-01-11T22:30:09.341Z,99417.53
2023-01-11T22:32:56.448Z,99415.94
2023-01-11T22:35:54.355Z,99429.81
2023-01-11T22:38:42.217Z,99431.72
2023-01-11T22:41:29.366Z,99425.66
2023-01-11T22:44:18.240Z,99430.75
2023-01-11T22:47:05.466Z,99429.41
2023-01-11T22:49:54.411Z,99441.59
2023-01-11T22:52:41.845Z,99431.13
2023-01-11T22:55:28.945Z,99419.94
2023-01-11T22:58:16.061Z,99419.44
2023-01-11T23:01:15.809Z,99428.97
2023-01-11T23:04:04.359Z,99427.69
2023-01-11T23:06:51.421Z,99410.09
2023-01-11T23:09:38.468Z,99412.91
2023-01-11T23:12:43.994Z,99401.50
2023-01-11T23:15:31.321Z,99409.56
2023-01-11T23:18:18.484Z,99414.28
2023-01-11T23:21:05.781Z,99404.47
2023-01-11T23:23:53.538Z,99404.22
2023-01-11T23:26:40.799Z,99393.16
2023-01-11T23:29:27.945Z,99404.94
2023-01-11T23:32:15.041Z,99402.75
2023-01-11T23:35:02.188Z,99416.56
2023-01-11T23:37:50.501Z,99416.97
2023-01-11T23:40:56.201Z,99403.72
2023-01-11T23:43:43.276Z,99406.38
2023-01-11T23:46:49.442Z,99424.72
2023-01-11T23:49:36.998Z,99410.78
2023-01-11T23:52:26.089Z,99423.88
2023-01-11T23:55:14.125Z,99411.00
2023-01-11T23:58:10.453Z,99428.97
